Three Rivers, TX

7:41 AM CST on December 29, 2014 (GMT -0600)
Alice International | Change Station
CLOSE
Current Station
Airport
Location: Alice,
Elevation: 177 ft
Nearby Weather Stations

Elev 177 ft 27.74 °N, 98.03 °W | Updated 48 minutes ago

Fog
Fog
36 °F
Feels Like 31 °F
N
6
Wind Variable Wind from SSW

Today
High -- | Low -- °F
--% Chance of Precip.
Yesterday
High -- | Low -- °F
Precip. -- in
7:24 AM 5:45 PM
First Quarter, 59% visible
Pressure 30.17 in
Visibility 7.0 miles
Clouds Clear
Windchill 31 °F
Dew Point 34 °F
Humidity 93%
Rainfall 0.00 in
Snow Depth Not available.
UV 0 out of 12
Pollen 6.70 out of 12
Air Quality Not available.
Flu Activity Not available.
METAR KALI 291253Z AUTO 20005KT 7SM CLR 02/01 A3017 RMK AO2 SLP216 T00220011 $

More Conditions Fewer Conditions

Pressure 30.17 in
Visibility 7.0 miles
Clouds Clear
Windchill 31 °F
Dew Point 34 °F
Humidity 93%
Rainfall 0.00 in
Snow Depth Not available.
UV 0 out of 12
Pollen 6.70 out of 12
Air Quality Not available.
Flu Activity Not available.
METAR KALI 291253Z AUTO 20005KT 7SM CLR 02/01 A3017 RMK AO2 SLP216 T00220011 $

More Conditions Fewer Conditions

10-Day Weather Forecast

Almanac

Astronomy

Dec. 29, 2014 Rise Set
Actual Time
Civil Twilight
Nautical Twilight
Astronomical Twilight
Moon
Length of Visible Light
Length of Day
Tomorrow will be .
, % of the Moon is Illuminated

Today's Extremes

State Highs State Lows

Community

WunderPhotos

Upload Photos

1,781,586 photos uploaded!

WunderBlogs® & News

Nearby

Air Quality

  Air Quality AQ Index Pollutant
Not available.

Snow Depth

Station Depth Elevation

Earthquake Activity

City Distance Mag. Time & Date
Minimum magnitude displayed is 2.5.

Coastal Water Temperatures

Place Temperature

Nearby Weather Stations